createdAt,value
2016-10-12T00:00:28.433Z,1009.04
2016-10-12T00:01:28.405Z,1009.02
2016-10-12T00:02:28.379Z,1009.06
2016-10-12T00:03:28.351Z,1009.05
2016-10-12T00:04:28.324Z,1009.07
2016-10-12T00:05:28.297Z,1009.01
2016-10-12T00:06:28.270Z,1009.05
2016-10-12T00:07:28.240Z,1009.1
2016-10-12T00:08:28.213Z,1009.05
2016-10-12T00:09:28.187Z,1009.07
2016-10-12T00:10:28.159Z,1009.05
2016-10-12T00:11:28.131Z,1009.06
2016-10-12T00:12:28.105Z,1009.09
2016-10-12T00:13:28.077Z,1009.03
2016-10-12T00:14:28.049Z,1009.09
2016-10-12T00:15:28.023Z,1009.08
2016-10-12T00:16:27.995Z,1009.04
2016-10-12T00:17:27.967Z,1009.03
2016-10-12T00:18:27.939Z,1009.06
2016-10-12T00:19:27.912Z,1009.07
2016-10-12T00:20:27.885Z,1009.07
2016-10-12T00:21:27.857Z,1009.05
2016-10-12T00:22:27.830Z,1009.06
2016-10-12T00:23:27.801Z,1009.05
2016-10-12T00:24:27.776Z,1009.05
2016-10-12T00:25:27.746Z,1009.07
2016-10-12T00:26:27.720Z,1009.05
2016-10-12T00:27:27.693Z,1009.08
2016-10-12T00:28:27.665Z,1009.09
2016-10-12T00:29:27.637Z,1009.09
2016-10-12T00:30:27.609Z,1009.06
2016-10-12T00:31:27.583Z,1009.05
2016-10-12T00:32:27.553Z,1009.04
2016-10-12T00:33:27.526Z,1009.04
2016-10-12T00:34:27.500Z,1009.08
2016-10-12T00:35:27.472Z,1009.06
2016-10-12T00:36:27.443Z,1009.11
2016-10-12T00:37:27.416Z,1009.07
2016-10-12T00:38:27.390Z,1009.09
2016-10-12T00:39:27.363Z,1009.06
2016-10-12T00:40:27.333Z,1009.06
2016-10-12T00:41:27.306Z,1009.07
2016-10-12T00:42:27.280Z,1009.05
2016-10-12T00:43:27.250Z,1009.06
2016-10-12T00:44:27.223Z,1009.08
2016-10-12T00:45:27.197Z,1009.06
2016-10-12T00:46:27.169Z,1009.1
2016-10-12T00:47:27.140Z,1009.07
2016-10-12T00:48:27.114Z,1009.05
2016-10-12T00:49:27.086Z,1009.04
2016-10-12T00:50:27.059Z,1009.03
2016-10-12T00:51:27.031Z,1009.08
2016-10-12T00:52:27.003Z,1009.05
2016-10-12T00:53:26.975Z,1009.1
2016-10-12T00:54:26.947Z,1009.03
2016-10-12T00:55:26.923Z,1009.04
2016-10-12T00:56:26.893Z,1009.03
2016-10-12T00:57:26.865Z,1008.95
2016-10-12T00:58:26.836Z,1009.05
2016-10-12T00:59:26.809Z,1009.08
2016-10-12T01:00:26.782Z,1009.03
2016-10-12T01:01:26.754Z,1009.03
2016-10-12T01:02:26.727Z,1009.03
2016-10-12T01:03:26.698Z,1009.03
2016-10-12T01:04:26.671Z,1009.04
2016-10-12T01:05:26.642Z,1008.99
2016-10-12T01:06:26.615Z,1009.06
2016-10-12T01:07:26.588Z,1009
2016-10-12T01:08:26.560Z,1009.07
2016-10-12T01:09:26.533Z,1009
2016-10-12T01:10:26.505Z,1009.05
2016-10-12T01:11:26.477Z,1009.03
2016-10-12T01:12:26.449Z,1009.04
2016-10-12T01:13:26.422Z,1009.09
2016-10-12T01:14:26.395Z,1009.05
2016-10-12T01:15:26.367Z,1009.03
2016-10-12T01:16:26.338Z,1009
2016-10-12T01:17:26.311Z,1008.99
2016-10-12T01:18:26.283Z,1009
2016-10-12T01:19:26.257Z,1008.98
2016-10-12T01:20:26.227Z,1009.03
2016-10-12T01:21:26.201Z,1009.01
2016-10-12T01:22:26.172Z,1008.96
2016-10-12T01:23:26.146Z,1009.03
2016-10-12T01:24:26.116Z,1009.02
2016-10-12T01:25:26.089Z,1008.98
2016-10-12T01:26:26.062Z,1008.99
2016-10-12T01:27:26.033Z,1008.98
2016-10-12T01:28:26.006Z,1008.99
2016-10-12T01:29:25.979Z,1009.03
2016-10-12T01:30:25.952Z,1009
2016-10-12T01:31:25.928Z,1008.96
2016-10-12T01:32:25.896Z,1008.99
2016-10-12T01:33:25.869Z,1009.03
2016-10-12T01:34:25.840Z,1008.98
2016-10-12T01:35:25.813Z,1008.97
2016-10-12T01:36:25.785Z,1008.99
2016-10-12T01:37:25.757Z,1008.99
2016-10-12T01:38:25.729Z,1009.02
2016-10-12T01:39:25.703Z,1008.96
2016-10-12T01:40:25.675Z,1008.97
2016-10-12T01:41:25.647Z,1008.97
2016-10-12T01:42:25.618Z,1008.95
2016-10-12T01:43:25.591Z,1008.93
2016-10-12T01:44:25.563Z,1008.92
2016-10-12T01:45:25.535Z,1008.97
2016-10-12T01:46:25.507Z,1008.95
2016-10-12T01:47:25.480Z,1008.92
2016-10-12T01:48:25.452Z,1008.93
2016-10-12T01:49:25.424Z,1008.94
2016-10-12T01:50:25.396Z,1008.94
2016-10-12T01:51:25.369Z,1008.9
2016-10-12T01:52:25.341Z,1008.93
2016-10-12T01:53:25.312Z,1008.94
2016-10-12T01:54:25.285Z,1008.96
2016-10-12T01:55:25.257Z,1008.93
2016-10-12T01:56:25.229Z,1008.92
2016-10-12T01:57:25.201Z,1008.9
2016-10-12T01:58:25.174Z,1008.89
2016-10-12T01:59:25.146Z,1008.93
2016-10-12T02:00:25.117Z,1008.89
2016-10-12T02:01:25.090Z,1008.89
2016-10-12T02:02:25.062Z,1008.88
2016-10-12T02:03:25.035Z,1008.86
2016-10-12T02:04:25.006Z,1008.86
2016-10-12T02:05:24.978Z,1008.86
2016-10-12T02:06:24.951Z,1008.93
2016-10-12T02:07:24.922Z,1008.87
2016-10-12T02:08:24.894Z,1008.85
2016-10-12T02:09:24.866Z,1008.84
2016-10-12T02:10:24.839Z,1008.86
2016-10-12T02:11:24.810Z,1008.84
2016-10-12T02:12:24.782Z,1008.86
2016-10-12T02:13:24.755Z,1008.87
2016-10-12T02:14:24.727Z,1008.83
2016-10-12T02:15:24.698Z,1008.8
2016-10-12T02:16:24.670Z,1008.77
2016-10-12T02:17:24.643Z,1008.81
2016-10-12T02:18:24.614Z,1008.82
2016-10-12T02:19:24.587Z,1008.82
2016-10-12T02:20:24.559Z,1008.78
2016-10-12T02:21:24.532Z,1008.83
2016-10-12T02:22:24.503Z,1008.85
2016-10-12T02:23:24.476Z,1008.87
2016-10-12T02:24:24.448Z,1008.86
2016-10-12T02:25:24.419Z,1008.82
2016-10-12T02:26:24.391Z,1008.83
2016-10-12T02:27:24.363Z,1008.82
2016-10-12T02:28:24.335Z,1008.83
2016-10-12T02:29:24.306Z,1008.86
2016-10-12T02:30:24.279Z,1008.89
2016-10-12T02:31:24.251Z,1008.83
2016-10-12T02:32:24.224Z,1008.86
2016-10-12T02:33:24.195Z,1008.85
2016-10-12T02:34:24.168Z,1008.84
2016-10-12T02:35:24.139Z,1008.81
2016-10-12T02:36:24.112Z,1008.9
2016-10-12T02:37:24.083Z,1008.84
2016-10-12T02:38:24.056Z,1008.8
2016-10-12T02:39:24.026Z,1008.81
2016-10-12T02:40:23.999Z,1008.8
2016-10-12T02:41:23.971Z,1008.86
2016-10-12T02:42:23.942Z,1008.86
2016-10-12T02:43:23.914Z,1008.87
2016-10-12T02:44:23.886Z,1008.82
2016-10-12T02:45:23.859Z,1008.82
2016-10-12T02:46:23.830Z,1008.86
2016-10-12T02:47:23.803Z,1008.85
2016-10-12T02:48:23.773Z,1008.83
2016-10-12T02:49:23.747Z,1008.83
2016-10-12T02:50:23.719Z,1008.79
2016-10-12T02:51:23.690Z,1008.82
2016-10-12T02:52:23.662Z,1008.83
2016-10-12T02:53:23.633Z,1008.79
2016-10-12T02:54:23.606Z,1008.78
2016-10-12T02:55:23.576Z,1008.79
2016-10-12T02:56:23.548Z,1008.77
2016-10-12T02:57:23.521Z,1008.76
2016-10-12T02:58:23.494Z,1008.75
2016-10-12T02:59:23.464Z,1008.76
2016-10-12T03:00:23.437Z,1008.8
2016-10-12T03:01:23.409Z,1008.73
2016-10-12T03:02:23.381Z,1008.74
2016-10-12T03:03:23.353Z,1008.75
2016-10-12T03:04:23.324Z,1008.75
2016-10-12T03:05:23.296Z,1008.73
2016-10-12T03:06:23.267Z,1008.75
2016-10-12T03:07:23.240Z,1008.79
2016-10-12T03:08:23.211Z,1008.8
2016-10-12T03:09:23.183Z,1008.79
2016-10-12T03:10:23.157Z,1008.78
2016-10-12T03:11:23.129Z,1008.76
2016-10-12T03:12:23.101Z,1008.72
2016-10-12T03:13:23.072Z,1008.75
2016-10-12T03:14:23.044Z,1008.79
2016-10-12T03:15:23.015Z,1008.81
2016-10-12T03:16:22.988Z,1008.81
2016-10-12T03:17:22.959Z,1008.77
2016-10-12T03:18:22.931Z,1008.79
2016-10-12T03:19:22.903Z,1008.76
2016-10-12T03:20:22.874Z,1008.77
2016-10-12T03:21:22.847Z,1008.78
2016-10-12T03:22:22.818Z,1008.8
2016-10-12T03:23:22.791Z,1008.85
2016-10-12T03:24:22.761Z,1008.85
2016-10-12T03:25:22.734Z,1008.81
2016-10-12T03:26:22.705Z,1008.83
2016-10-12T03:27:22.677Z,1008.77
2016-10-12T03:28:22.648Z,1008.78
2016-10-12T03:29:22.620Z,1008.82
2016-10-12T03:30:22.594Z,1008.83
2016-10-12T03:31:22.565Z,1008.74
2016-10-12T03:32:22.537Z,1008.78
2016-10-12T03:33:22.509Z,1008.75
2016-10-12T03:34:22.481Z,1008.79
2016-10-12T03:35:22.451Z,1008.75
2016-10-12T03:36:22.423Z,1008.77
2016-10-12T03:37:22.395Z,1008.75
2016-10-12T03:38:22.368Z,1008.8
2016-10-12T03:39:22.338Z,1008.74
2016-10-12T03:40:22.311Z,1008.75
2016-10-12T03:41:22.283Z,1008.78
2016-10-12T03:42:22.254Z,1008.75
2016-10-12T03:43:22.226Z,1008.77
2016-10-12T03:44:22.197Z,1008.77
2016-10-12T03:45:22.170Z,1008.78
2016-10-12T03:46:22.140Z,1008.78
2016-10-12T03:47:22.112Z,1008.74
2016-10-12T03:48:22.087Z,1008.82
2016-10-12T03:49:22.056Z,1008.76
2016-10-12T03:50:22.028Z,1008.79
2016-10-12T03:51:22.001Z,1008.76
2016-10-12T03:52:21.972Z,1008.78
2016-10-12T03:53:21.942Z,1008.85
2016-10-12T03:54:21.914Z,1008.77
2016-10-12T03:55:21.886Z,1008.86
2016-10-12T03:56:21.860Z,1008.83
2016-10-12T03:57:21.831Z,1008.83
2016-10-12T03:58:21.801Z,1008.85
2016-10-12T03:59:21.773Z,1008.84
2016-10-12T04:00:21.745Z,1008.86
2016-10-12T04:01:21.719Z,1008.84
2016-10-12T04:02:21.688Z,1008.88
2016-10-12T04:03:21.660Z,1008.86
2016-10-12T04:04:21.631Z,1008.86
2016-10-12T04:05:21.603Z,1008.86
2016-10-12T04:06:21.576Z,1008.91
2016-10-12T04:07:21.548Z,1008.86
2016-10-12T04:08:21.519Z,1008.84
2016-10-12T04:09:21.491Z,1008.91
2016-10-12T04:10:21.463Z,1008.81
2016-10-12T04:11:21.434Z,1008.83
2016-10-12T04:12:21.405Z,1008.84
2016-10-12T04:13:21.379Z,1008.86
2016-10-12T04:14:21.352Z,1008.83
2016-10-12T04:15:21.321Z,1008.91
2016-10-12T04:16:21.292Z,1008.87
2016-10-12T04:17:21.265Z,1008.96
2016-10-12T04:18:21.237Z,1008.88
2016-10-12T04:19:21.207Z,1008.87
2016-10-12T04:20:21.179Z,1008.9
2016-10-12T04:21:21.151Z,1008.9
2016-10-12T04:22:21.123Z,1008.91
2016-10-12T04:23:21.094Z,1008.95
2016-10-12T04:24:21.066Z,1008.95
2016-10-12T04:25:21.039Z,1008.95
2016-10-12T04:26:21.009Z,1008.92
2016-10-12T04:27:20.981Z,1008.97
2016-10-12T04:28:20.953Z,1008.93
2016-10-12T04:29:20.925Z,1008.96
2016-10-12T04:30:20.896Z,1009.02
2016-10-12T04:31:20.869Z,1008.98
2016-10-12T04:32:20.840Z,1008.98
2016-10-12T04:33:20.811Z,1008.98
2016-10-12T04:34:20.783Z,1009
2016-10-12T04:35:20.755Z,1008.98
2016-10-12T04:36:20.726Z,1009.03
2016-10-12T04:37:20.698Z,1009.01
2016-10-12T04:38:20.670Z,1009
2016-10-12T04:39:20.641Z,1009.04
2016-10-12T04:40:20.613Z,1009.02
2016-10-12T04:41:20.584Z,1009.03
2016-10-12T04:42:20.556Z,1009.03
2016-10-12T04:43:20.528Z,1009.02
2016-10-12T04:44:20.499Z,1009.05
2016-10-12T04:45:20.472Z,1008.93
2016-10-12T04:46:20.444Z,1009
2016-10-12T04:47:20.416Z,1009.02
2016-10-12T04:48:20.386Z,1008.97
2016-10-12T04:49:20.359Z,1009
2016-10-12T04:50:20.330Z,1008.91
2016-10-12T04:51:20.302Z,1008.95
2016-10-12T04:52:20.273Z,1009.03
2016-10-12T04:53:20.246Z,1008.98
2016-10-12T04:54:20.216Z,1008.95
2016-10-12T04:55:20.187Z,1008.93
2016-10-12T04:56:20.159Z,1008.95
2016-10-12T04:57:20.132Z,1008.91
2016-10-12T04:58:20.103Z,1008.92
2016-10-12T04:59:20.074Z,1008.92
2016-10-12T05:00:20.046Z,1008.91
2016-10-12T05:01:20.163Z,1008.91
2016-10-12T05:02:20.096Z,1008.95
2016-10-12T05:03:19.960Z,1008.94
2016-10-12T05:04:19.932Z,1008.94
2016-10-12T05:05:19.904Z,1008.95
2016-10-12T05:06:19.876Z,1008.92
2016-10-12T05:07:19.846Z,1008.97
2016-10-12T05:08:19.820Z,1008.92
2016-10-12T05:09:19.791Z,1008.95
2016-10-12T05:10:19.762Z,1008.97
2016-10-12T05:11:19.734Z,1008.95
2016-10-12T05:12:19.705Z,1008.91
2016-10-12T05:13:19.677Z,1008.91
2016-10-12T05:14:19.648Z,1008.9
2016-10-12T05:15:19.621Z,1008.98
2016-10-12T05:16:19.592Z,1008.95
2016-10-12T05:17:19.562Z,1008.94
2016-10-12T05:18:19.613Z,1008.93
2016-10-12T05:19:19.670Z,1008.94
2016-10-12T05:20:19.601Z,1008.91
2016-10-12T05:21:19.547Z,1008.93
2016-10-12T05:22:19.420Z,1008.96
2016-10-12T05:23:19.392Z,1008.94
2016-10-12T05:24:19.382Z,1008.94
2016-10-12T05:25:19.336Z,1008.97
2016-10-12T05:26:19.308Z,1008.95
2016-10-12T05:27:19.280Z,1008.99
2016-10-12T05:28:19.250Z,1009
2016-10-12T05:29:19.222Z,1009.01
2016-10-12T05:30:19.194Z,1008.99
2016-10-12T05:31:19.165Z,1009.06
2016-10-12T05:32:19.137Z,1009.02
2016-10-12T05:33:19.108Z,1009.07
2016-10-12T05:34:19.080Z,1009.08
2016-10-12T05:35:19.053Z,1009.09
2016-10-12T05:36:19.022Z,1009.04
2016-10-12T05:37:18.995Z,1009.05
2016-10-12T05:38:18.966Z,1009.05
2016-10-12T05:39:18.937Z,1009.1
2016-10-12T05:40:18.909Z,1009.08
2016-10-12T05:41:18.882Z,1009.1
2016-10-12T05:42:18.852Z,1009.13
2016-10-12T05:43:18.824Z,1009.18
2016-10-12T05:44:18.795Z,1009.14
2016-10-12T05:45:18.768Z,1009.18
2016-10-12T05:46:18.739Z,1009.18
2016-10-12T05:47:18.709Z,1009.19
2016-10-12T05:48:18.682Z,1009.15
2016-10-12T05:49:18.654Z,1009.19
2016-10-12T05:50:18.624Z,1009.2
2016-10-12T05:51:18.596Z,1009.21
2016-10-12T05:52:18.568Z,1009.22
2016-10-12T05:53:18.540Z,1009.21
2016-10-12T05:54:18.510Z,1009.18
2016-10-12T05:55:18.484Z,1009.25
2016-10-12T05:56:18.456Z,1009.22
2016-10-12T05:57:18.427Z,1009.24
2016-10-12T05:58:18.397Z,1009.21
2016-10-12T05:59:18.370Z,1009.27
2016-10-12T06:00:18.341Z,1009.28
2016-10-12T06:01:18.313Z,1009.29
2016-10-12T06:02:18.284Z,1009.26
2016-10-12T06:03:18.257Z,1009.3
2016-10-12T06:04:18.227Z,1009.31
2016-10-12T06:05:18.199Z,1009.32
2016-10-12T06:06:18.171Z,1009.31
2016-10-12T06:07:18.143Z,1009.34
2016-10-12T06:08:18.114Z,1009.36
2016-10-12T06:09:18.087Z,1009.37
2016-10-12T06:10:18.057Z,1009.34
2016-10-12T06:11:18.030Z,1009.35
2016-10-12T06:12:18.000Z,1009.37
2016-10-12T06:13:17.972Z,1009.36
2016-10-12T06:14:17.944Z,1009.41
2016-10-12T06:15:17.916Z,1009.34
2016-10-12T06:16:17.887Z,1009.39
2016-10-12T06:17:17.859Z,1009.4
2016-10-12T06:18:17.831Z,1009.34
2016-10-12T06:19:17.803Z,1009.36
2016-10-12T06:20:17.776Z,1009.35
2016-10-12T06:21:17.747Z,1009.41
2016-10-12T06:22:17.719Z,1009.39
2016-10-12T06:23:17.690Z,1009.38
2016-10-12T06:24:17.661Z,1009.37
2016-10-12T06:25:17.633Z,1009.4
2016-10-12T06:26:17.605Z,1009.44
2016-10-12T06:27:17.577Z,1009.43
2016-10-12T06:28:17.549Z,1009.38
2016-10-12T06:29:17.521Z,1009.42
2016-10-12T06:30:17.492Z,1009.42
2016-10-12T06:31:17.464Z,1009.42
2016-10-12T06:32:17.435Z,1009.47
2016-10-12T06:33:17.407Z,1009.43
2016-10-12T06:34:17.378Z,1009.46
2016-10-12T06:35:17.350Z,1009.5
2016-10-12T06:36:17.323Z,1009.49
2016-10-12T06:37:17.295Z,1009.48
2016-10-12T06:38:17.265Z,1009.49
2016-10-12T06:39:17.238Z,1009.49
2016-10-12T06:40:17.208Z,1009.5
2016-10-12T06:41:17.180Z,1009.5
2016-10-12T06:42:17.151Z,1009.52
2016-10-12T06:43:17.124Z,1009.52
2016-10-12T06:44:17.095Z,1009.51
2016-10-12T06:45:17.066Z,1009.54
2016-10-12T06:46:17.039Z,1009.51
2016-10-12T06:47:17.010Z,1009.59
2016-10-12T06:48:16.982Z,1009.57
2016-10-12T06:49:16.952Z,1009.58
2016-10-12T06:50:16.924Z,1009.58
2016-10-12T06:51:16.896Z,1009.58
2016-10-12T06:52:16.867Z,1009.57
2016-10-12T06:53:16.840Z,1009.6
2016-10-12T06:54:16.813Z,1009.65
2016-10-12T06:55:16.783Z,1009.58
2016-10-12T06:56:16.755Z,1009.66
2016-10-12T06:57:16.726Z,1009.65
2016-10-12T06:58:16.698Z,1009.67
2016-10-12T06:59:16.670Z,1009.67
2016-10-12T07:00:16.641Z,1009.63
2016-10-12T07:01:16.613Z,1009.62
2016-10-12T07:02:16.585Z,1009.65
2016-10-12T07:03:16.556Z,1009.66
2016-10-12T07:04:16.528Z,1009.71
2016-10-12T07:05:16.501Z,1009.66
2016-10-12T07:06:16.474Z,1009.72
2016-10-12T07:07:16.443Z,1009.76
2016-10-12T07:08:16.416Z,1009.73
2016-10-12T07:09:16.388Z,1009.74
2016-10-12T07:10:16.360Z,1009.78
2016-10-12T07:11:16.425Z,1009.75
2016-10-12T07:12:16.303Z,1009.81
2016-10-12T07:13:16.281Z,1009.85
2016-10-12T07:14:16.248Z,1009.76
2016-10-12T07:15:16.220Z,1009.82
2016-10-12T07:16:16.191Z,1009.79
2016-10-12T07:17:16.163Z,1009.84
2016-10-12T07:18:16.136Z,1009.85
2016-10-12T07:19:16.107Z,1009.84
2016-10-12T07:20:16.079Z,1009.86
2016-10-12T07:21:16.051Z,1009.91
2016-10-12T07:22:16.325Z,1009.9
2016-10-12T07:23:16.204Z,1009.93
2016-10-12T07:24:15.995Z,1009.93
2016-10-12T07:25:15.948Z,1009.94
2016-10-12T07:26:15.910Z,1009.94
2016-10-12T07:27:15.893Z,1009.94
2016-10-12T07:28:15.855Z,1009.96
2016-10-12T07:29:15.826Z,1009.98
2016-10-12T07:30:15.800Z,1009.95
2016-10-12T07:31:15.772Z,1009.95
2016-10-12T07:32:15.743Z,1009.97
2016-10-12T07:33:15.715Z,1010.01
2016-10-12T07:34:15.687Z,1010.01
2016-10-12T07:35:15.659Z,1009.93
2016-10-12T07:36:15.630Z,1010.03
2016-10-12T07:37:15.603Z,1009.96
2016-10-12T07:38:15.576Z,1010.01
2016-10-12T07:39:15.548Z,1009.95
2016-10-12T07:40:15.577Z,1009.99
2016-10-12T07:41:15.492Z,1009.99
2016-10-12T07:42:15.465Z,1010
2016-10-12T07:43:15.437Z,1010
2016-10-12T07:44:15.408Z,1009.96
2016-10-12T07:45:15.381Z,1009.96
2016-10-12T07:46:15.354Z,1009.99
2016-10-12T07:47:15.324Z,1009.99
2016-10-12T07:48:15.298Z,1010.03
2016-10-12T07:49:15.269Z,1010.02
2016-10-12T07:50:15.242Z,1010.01
2016-10-12T07:51:15.212Z,1010.05
2016-10-12T07:52:15.186Z,1010.02
2016-10-12T07:53:15.158Z,1010.02
2016-10-12T07:54:15.237Z,1010.02
2016-10-12T07:55:15.216Z,1010.05
2016-10-12T07:56:15.074Z,1010.09
2016-10-12T07:57:15.096Z,1010.08
2016-10-12T07:58:15.019Z,1010.04
2016-10-12T07:59:14.991Z,1010.09
2016-10-12T08:00:14.966Z,1010.07
2016-10-12T08:01:15.040Z,1010.03
2016-10-12T08:02:15.007Z,1010.05
2016-10-12T08:03:14.884Z,1010.09
2016-10-12T08:04:14.981Z,1010.04
2016-10-12T08:05:14.827Z,1010.06
2016-10-12T08:06:14.859Z,1010.06
2016-10-12T08:07:14.771Z,1010.07
2016-10-12T08:08:14.745Z,1010.05
2016-10-12T08:09:14.802Z,1010.06
2016-10-12T08:10:14.688Z,1010.1
2016-10-12T08:11:14.661Z,1010.05
2016-10-12T08:12:14.633Z,1010.05
2016-10-12T08:13:14.604Z,1010.08
2016-10-12T08:14:14.578Z,1010.11
2016-10-12T08:15:14.550Z,1010.02
2016-10-12T08:16:14.521Z,1010.11
2016-10-12T08:17:14.496Z,1010.09
2016-10-12T08:18:14.467Z,1010.12
2016-10-12T08:19:14.450Z,1010.11
2016-10-12T08:20:14.412Z,1010.1
2016-10-12T08:21:14.384Z,1010.13
2016-10-12T08:22:14.356Z,1010.11
2016-10-12T08:23:14.330Z,1010.1
2016-10-12T08:24:14.302Z,1010.11
2016-10-12T08:25:14.274Z,1010.15
2016-10-12T08:26:14.248Z,1010.08
2016-10-12T08:27:14.218Z,1010.13
2016-10-12T08:28:14.191Z,1010.1
2016-10-12T08:29:14.165Z,1010.13
2016-10-12T08:30:14.137Z,1010.06
2016-10-12T08:31:14.109Z,1010.13
2016-10-12T08:32:14.081Z,1010.11
2016-10-12T08:33:14.056Z,1010.02
2016-10-12T08:34:14.028Z,1010.08
2016-10-12T08:35:13.999Z,1010.14
2016-10-12T08:36:13.972Z,1010.08
2016-10-12T08:37:13.946Z,1010.11
2016-10-12T08:38:13.916Z,1010.14
2016-10-12T08:39:13.889Z,1010.14
2016-10-12T08:40:13.862Z,1010.16
2016-10-12T08:41:13.836Z,1010.14
2016-10-12T08:42:13.808Z,1010.2
2016-10-12T08:43:13.781Z,1010.17
2016-10-12T08:44:13.753Z,1010.15
2016-10-12T08:45:13.726Z,1010.11
2016-10-12T08:46:13.698Z,1010.1
2016-10-12T08:47:13.672Z,1010.13
2016-10-12T08:48:13.644Z,1010.18
2016-10-12T08:49:13.616Z,1010.21
2016-10-12T08:50:13.589Z,1010.25
2016-10-12T08:51:13.562Z,1010.19
2016-10-12T08:52:13.535Z,1010.13
2016-10-12T08:53:13.507Z,1010.27
2016-10-12T08:54:13.479Z,1010.21
2016-10-12T08:55:13.453Z,1010.26
2016-10-12T08:56:13.426Z,1010.22
2016-10-12T08:57:13.398Z,1010.24
2016-10-12T08:58:13.371Z,1010.25
2016-10-12T08:59:13.344Z,1010.26
2016-10-12T09:00:13.317Z,1010.21
2016-10-12T09:01:13.291Z,1010.22
2016-10-12T09:02:13.262Z,1010.2
2016-10-12T09:03:13.235Z,1010.26
2016-10-12T09:04:13.207Z,1010.11
2016-10-12T09:05:13.180Z,1010.22
2016-10-12T09:06:13.154Z,1010.21
2016-10-12T09:07:13.128Z,1010.22
2016-10-12T09:08:13.099Z,1010.25
2016-10-12T09:09:13.072Z,1010.19
2016-10-12T09:10:13.048Z,1010.23
2016-10-12T09:11:13.017Z,1010.2
2016-10-12T09:12:12.991Z,1010.25
2016-10-12T09:13:12.964Z,1010.19
2016-10-12T09:14:12.937Z,1010.16
2016-10-12T09:15:12.909Z,1010.24
2016-10-12T09:16:12.884Z,1010.2
2016-10-12T09:17:12.856Z,1010.17
2016-10-12T09:18:12.830Z,1010.2
2016-10-12T09:19:12.802Z,1010.23
2016-10-12T09:20:12.776Z,1010.18
2016-10-12T09:21:12.750Z,1010.19
2016-10-12T09:22:12.723Z,1010.18
2016-10-12T09:23:12.696Z,1010.16
2016-10-12T09:24:12.669Z,1010.17
2016-10-12T09:25:12.644Z,1010.16
2016-10-12T09:26:12.617Z,1010.19
2016-10-12T09:27:12.591Z,1010.1
2016-10-12T09:28:12.564Z,1010.15
2016-10-12T09:29:12.538Z,1010.14
2016-10-12T09:30:12.515Z,1010.15
2016-10-12T09:31:12.487Z,1010.17
2016-10-12T09:32:12.460Z,1010.21
2016-10-12T09:33:12.435Z,1010.16
2016-10-12T09:34:12.408Z,1010.15
2016-10-12T09:35:12.383Z,1010.2
2016-10-12T09:36:12.356Z,1010.1
2016-10-12T09:37:12.330Z,1010.21
2016-10-12T09:38:12.303Z,1010.18
2016-10-12T09:39:12.279Z,1010.27
2016-10-12T09:40:12.251Z,1010.19
2016-10-12T09:41:12.226Z,1010.17
2016-10-12T09:42:12.200Z,1010.18
2016-10-12T09:43:12.174Z,1010.22
2016-10-12T09:44:12.148Z,1010.18
2016-10-12T09:45:12.121Z,1010.23
2016-10-12T09:46:12.095Z,1010.22
2016-10-12T09:47:12.070Z,1010.27
2016-10-12T09:48:12.044Z,1010.2
2016-10-12T09:49:12.018Z,1010.21
2016-10-12T09:50:11.992Z,1010.24
2016-10-12T09:51:11.964Z,1010.26
2016-10-12T09:52:11.938Z,1010.24
2016-10-12T09:53:11.912Z,1010.2
2016-10-12T09:54:11.887Z,1010.19
2016-10-12T09:55:11.860Z,1010.22
2016-10-12T09:56:11.835Z,1010.2
2016-10-12T09:57:11.809Z,1010.22
2016-10-12T09:58:11.783Z,1010.24
2016-10-12T09:59:11.756Z,1010.21
2016-10-12T10:00:11.730Z,1010.23
2016-10-12T10:01:11.703Z,1010.24
2016-10-12T10:02:11.676Z,1010.2
2016-10-12T10:03:11.651Z,1010.22
2016-10-12T10:04:11.625Z,1010.2
2016-10-12T10:05:11.598Z,1010.18
2016-10-12T10:06:11.572Z,1010.14
2016-10-12T10:07:11.549Z,1010.16
2016-10-12T10:08:11.521Z,1010.15
2016-10-12T10:09:11.495Z,1010.19
2016-10-12T10:10:11.468Z,1010.18
2016-10-12T10:11:11.442Z,1010.2
2016-10-12T10:12:11.415Z,1010.22
2016-10-12T10:13:11.389Z,1010.21
2016-10-12T10:14:11.364Z,1010.21
2016-10-12T10:15:11.336Z,1010.22
2016-10-12T10:16:11.312Z,1010.17
2016-10-12T10:17:11.285Z,1010.17
2016-10-12T10:18:11.259Z,1010.21
2016-10-12T10:19:11.232Z,1010.23
2016-10-12T10:20:11.207Z,1010.23
2016-10-12T10:21:11.180Z,1010.21
2016-10-12T10:22:11.154Z,1010.19
2016-10-12T10:23:11.128Z,1010.22
2016-10-12T10:24:11.101Z,1010.19
2016-10-12T10:25:11.074Z,1010.23
2016-10-12T10:26:11.049Z,1010.24
2016-10-12T10:27:11.022Z,1010.24
2016-10-12T10:28:10.995Z,1010.25
2016-10-12T10:29:10.968Z,1010.27
2016-10-12T10:30:10.944Z,1010.25
2016-10-12T10:31:10.917Z,1010.23
2016-10-12T10:32:10.890Z,1010.24
2016-10-12T10:33:10.863Z,1010.21
2016-10-12T10:34:10.837Z,1010.25
2016-10-12T10:35:10.810Z,1010.2
2016-10-12T10:36:10.785Z,1010.22
2016-10-12T10:37:10.758Z,1010.25
2016-10-12T10:38:10.731Z,1010.28
2016-10-12T10:39:10.704Z,1010.25
2016-10-12T10:40:10.679Z,1010.24
2016-10-12T10:41:10.653Z,1010.24
2016-10-12T10:42:10.627Z,1010.22
2016-10-12T10:43:10.599Z,1010.24
2016-10-12T10:44:10.573Z,1010.25
2016-10-12T10:45:10.548Z,1010.27
2016-10-12T10:46:10.521Z,1010.24
2016-10-12T10:47:10.496Z,1010.22
2016-10-12T10:48:10.469Z,1010.26
2016-10-12T10:49:10.445Z,1010.24
2016-10-12T10:50:10.417Z,1010.23
2016-10-12T10:51:10.519Z,1010.18
2016-10-12T10:52:10.367Z,1010.2
2016-10-12T10:53:10.341Z,1010.23
2016-10-12T10:54:10.316Z,1010.2
2016-10-12T10:55:10.290Z,1010.22
2016-10-12T10:56:10.264Z,1010.18
2016-10-12T10:57:10.239Z,1010.03
2016-10-12T10:58:10.214Z,1010.15
2016-10-12T10:59:10.189Z,1010.16
2016-10-12T11:00:10.164Z,1010.14
2016-10-12T11:01:10.138Z,1010.17
2016-10-12T11:02:10.111Z,1010.12
2016-10-12T11:03:10.088Z,1010.08
2016-10-12T11:04:10.062Z,1010.16
2016-10-12T11:05:10.037Z,1010.18
2016-10-12T11:06:10.014Z,1010.15
2016-10-12T11:07:09.987Z,1010.2
2016-10-12T11:08:09.961Z,1010.19
2016-10-12T11:09:09.937Z,1010.21
2016-10-12T11:10:09.911Z,1010.19
2016-10-12T11:11:09.887Z,1010.2
2016-10-12T11:12:09.861Z,1010.17
2016-10-12T11:13:09.835Z,1010.19
2016-10-12T11:14:09.811Z,1010.18
2016-10-12T11:15:09.784Z,1010.21
2016-10-12T11:16:09.758Z,1010.24
2016-10-12T11:17:09.733Z,1010.2
2016-10-12T11:18:09.709Z,1010.22
2016-10-12T11:19:09.682Z,1010.23
2016-10-12T11:20:09.658Z,1010.16
2016-10-12T11:21:09.633Z,1010.29
2016-10-12T11:22:09.607Z,1010.23
2016-10-12T11:23:09.580Z,1010.28
2016-10-12T11:24:09.554Z,1010.24
2016-10-12T11:25:09.529Z,1010.25
2016-10-12T11:26:09.503Z,1010.19
2016-10-12T11:27:09.477Z,1010.23
2016-10-12T11:28:09.453Z,1010.18
2016-10-12T11:29:09.427Z,1010.16
2016-10-12T11:30:09.401Z,1010.15
2016-10-12T12:41:39.808Z,1009.74
2016-10-12T12:42:39.804Z,1009.74
2016-10-12T12:43:39.875Z,1009.67
2016-10-12T12:44:39.735Z,1009.65
2016-10-12T12:45:39.711Z,1009.68
2016-10-12T12:46:39.688Z,1009.68
2016-10-12T12:47:39.664Z,1009.68
2016-10-12T12:48:39.638Z,1009.69
2016-10-12T12:49:39.615Z,1009.68
2016-10-12T12:50:39.616Z,1009.64
2016-10-12T12:51:39.716Z,1009.66
2016-10-12T12:52:39.543Z,1009.68
2016-10-12T12:53:39.518Z,1009.66
2016-10-12T12:54:39.494Z,1009.68
2016-10-12T12:55:39.470Z,1009.72
2016-10-12T12:56:39.445Z,1009.71
2016-10-12T12:57:39.693Z,1009.71
2016-10-12T12:58:39.396Z,1009.71
2016-10-12T12:59:39.370Z,1009.68
2016-10-12T13:00:39.345Z,1009.71
2016-10-12T13:01:39.321Z,1009.68
2016-10-12T13:02:39.295Z,1009.68
2016-10-12T13:03:39.270Z,1009.77
2016-10-12T13:04:39.244Z,1009.79
2016-10-12T13:05:39.219Z,1009.75
2016-10-12T13:06:39.195Z,1009.73
2016-10-12T13:07:39.177Z,1009.75
2016-10-12T13:08:39.183Z,1009.73
2016-10-12T13:09:39.119Z,1009.69
2016-10-12T13:10:39.092Z,1009.75
2016-10-12T13:11:39.066Z,1009.7
2016-10-12T13:12:39.086Z,1009.73
2016-10-12T13:13:39.015Z,1009.74
2016-10-12T13:14:38.989Z,1009.73
2016-10-12T13:15:38.965Z,1009.71
2016-10-12T13:16:38.938Z,1009.73
2016-10-12T13:17:38.912Z,1009.72
2016-10-12T13:18:38.946Z,1009.68